sensor_id;sensor_type;location;lat;lon;timestamp;pressure;altitude;pressure_sealevel;temperature;humidity
71384;BME280;67558;52.166;5.004;2023-06-01T00:00:36;102547.88;;;14.51;61.63
71384;BME280;67558;52.166;5.004;2023-06-01T00:03:04;102548.81;;;14.57;61.37
71384;BME280;67558;52.166;5.004;2023-06-01T00:05:29;102527.44;;;14.50;61.30
71384;BME280;67558;52.166;5.004;2023-06-01T00:07:55;102548.81;;;14.57;61.15
71384;BME280;67558;52.166;5.004;2023-06-01T00:10:20;102534.94;;;14.48;61.25
71384;BME280;67558;52.166;5.004;2023-06-01T00:12:45;102535.66;;;14.60;61.26
71384;BME280;67558;52.166;5.004;2023-06-01T00:15:11;102548.06;;;14.61;61.12
71384;BME280;67558;52.166;5.004;2023-06-01T00:17:36;102558.97;;;14.54;61.49
71384;BME280;67558;52.166;5.004;2023-06-01T00:20:02;102551.09;;;14.48;61.17
71384;BME280;67558;52.166;5.004;2023-06-01T00:22:32;102542.69;;;14.44;61.24
71384;BME280;67558;52.166;5.004;2023-06-01T00:25:00;102550.53;;;14.46;61.09
71384;BME280;67558;52.166;5.004;2023-06-01T00:27:25;102555.59;;;14.42;61.19
71384;BME280;67558;52.166;5.004;2023-06-01T00:29:50;102554.13;;;14.34;61.32
71384;BME280;67558;52.166;5.004;2023-06-01T00:32:16;102550.63;;;14.34;61.26
71384;BME280;67558;52.166;5.004;2023-06-01T00:34:41;102539.41;;;14.20;61.39
71384;BME280;67558;52.166;5.004;2023-06-01T00:37:06;102545.81;;;14.19;61.39
71384;BME280;67558;52.166;5.004;2023-06-01T00:39:32;102549.59;;;14.18;61.37
71384;BME280;67558;52.166;5.004;2023-06-01T00:41:57;102547.94;;;14.17;61.30
71384;BME280;67558;52.166;5.004;2023-06-01T00:44:22;102552.53;;;14.17;61.29
71384;BME280;67558;52.166;5.004;2023-06-01T00:46:49;102539.19;;;14.05;61.46
71384;BME280;67558;52.166;5.004;2023-06-01T00:49:15;102546.50;;;14.09;61.40
71384;BME280;67558;52.166;5.004;2023-06-01T00:51:40;102548.63;;;14.07;61.40
71384;BME280;67558;52.166;5.004;2023-06-01T00:54:06;102551.41;;;13.96;61.78
71384;BME280;67558;52.166;5.004;2023-06-01T00:56:31;102544.88;;;13.91;61.51
71384;BME280;67558;52.166;5.004;2023-06-01T00:58:59;102529.75;;;13.85;61.79
71384;BME280;67558;52.166;5.004;2023-06-01T01:01:24;102542.28;;;13.97;61.85
71384;BME280;67558;52.166;5.004;2023-06-01T01:03:51;102546.19;;;13.89;61.74
71384;BME280;67558;52.166;5.004;2023-06-01T01:06:27;102551.91;;;13.92;61.99
71384;BME280;67558;52.166;5.004;2023-06-01T01:09:11;102549.44;;;13.91;62.17
71384;BME280;67558;52.166;5.004;2023-06-01T01:11:40;102557.84;;;13.95;62.71
71384;BME280;67558;52.166;5.004;2023-06-01T01:14:37;102547.09;;;13.95;62.19
71384;BME280;67558;52.166;5.004;2023-06-01T01:17:11;102548.97;;;13.94;62.09
71384;BME280;67558;52.166;5.004;2023-06-01T01:22:34;102545.59;;;14.04;62.21
71384;BME280;67558;52.166;5.004;2023-06-01T01:30:57;102537.19;;;14.00;62.05
71384;BME280;67558;52.166;5.004;2023-06-01T01:33:24;102540.00;;;14.05;62.16
71384;BME280;67558;52.166;5.004;2023-06-01T01:35:51;102533.88;;;14.10;61.94
71384;BME280;67558;52.166;5.004;2023-06-01T01:38:16;102525.06;;;13.98;62.41
71384;BME280;67558;52.166;5.004;2023-06-01T01:40:42;102528.53;;;14.15;61.91
71384;BME280;67558;52.166;5.004;2023-06-01T01:43:07;102536.19;;;14.23;61.49
71384;BME280;67558;52.166;5.004;2023-06-01T01:45:33;102548.47;;;14.14;61.73
71384;BME280;67558;52.166;5.004;2023-06-01T01:48:09;102546.69;;;14.03;62.11
71384;BME280;67558;52.166;5.004;2023-06-01T01:50:50;102541.78;;;14.00;62.55
71384;BME280;67558;52.166;5.004;2023-06-01T01:53:17;102543.41;;;14.01;62.39
71384;BME280;67558;52.166;5.004;2023-06-01T01:55:46;102541.38;;;14.08;62.44
71384;BME280;67558;52.166;5.004;2023-06-01T01:58:12;102540.31;;;14.09;62.17
71384;BME280;67558;52.166;5.004;2023-06-01T02:00:38;102531.34;;;14.03;62.44
71384;BME280;67558;52.166;5.004;2023-06-01T02:03:13;102534.59;;;14.05;62.34
71384;BME280;67558;52.166;5.004;2023-06-01T02:05:38;102539.19;;;14.05;62.29
71384;BME280;67558;52.166;5.004;2023-06-01T02:08:04;102541.31;;;14.03;62.36
71384;BME280;67558;52.166;5.004;2023-06-01T02:10:30;102535.19;;;14.07;62.36
71384;BME280;67558;52.166;5.004;2023-06-01T02:12:56;102544.00;;;14.03;62.45
71384;BME280;67558;52.166;5.004;2023-06-01T02:15:21;102526.78;;;14.04;62.23
71384;BME280;67558;52.166;5.004;2023-06-01T02:17:46;102530.19;;;13.99;62.63
71384;BME280;67558;52.166;5.004;2023-06-01T02:20:12;102532.38;;;14.02;62.54
71384;BME280;67558;52.166;5.004;2023-06-01T02:22:37;102520.59;;;14.03;62.38
71384;BME280;67558;52.166;5.004;2023-06-01T02:25:03;102513.66;;;14.07;62.26
71384;BME280;67558;52.166;5.004;2023-06-01T02:27:30;102504.69;;;14.02;62.32
71384;BME280;67558;52.166;5.004;2023-06-01T02:29:55;102512.75;;;14.02;62.53
71384;BME280;67558;52.166;5.004;2023-06-01T02:32:21;102522.47;;;14.03;62.47
71384;BME280;67558;52.166;5.004;2023-06-01T02:34:46;102526.28;;;14.07;62.27
71384;BME280;67558;52.166;5.004;2023-06-01T02:37:11;102519.28;;;14.06;62.21
71384;BME280;67558;52.166;5.004;2023-06-01T02:39:37;102512.75;;;14.02;62.21
71384;BME280;67558;52.166;5.004;2023-06-01T02:42:02;102522.59;;;14.13;62.10
71384;BME280;67558;52.166;5.004;2023-06-01T02:44:28;102524.66;;;14.06;62.30
71384;BME280;67558;52.166;5.004;2023-06-01T02:46:53;102525.81;;;13.93;62.56
71384;BME280;67558;52.166;5.004;2023-06-01T02:49:18;102518.97;;;13.85;62.75
71384;BME280;67558;52.166;5.004;2023-06-01T02:51:44;102516.19;;;13.80;62.83
71384;BME280;67558;52.166;5.004;2023-06-01T02:54:10;102524.50;;;13.96;62.57
71384;BME280;67558;52.166;5.004;2023-06-01T02:56:35;102522.69;;;14.01;62.29
71384;BME280;67558;52.166;5.004;2023-06-01T02:59:00;102523.03;;;14.05;62.34
71384;BME280;67558;52.166;5.004;2023-06-01T03:01:26;102522.84;;;14.11;62.22
71384;BME280;67558;52.166;5.004;2023-06-01T03:03:52;102524.97;;;14.09;62.25
71384;BME280;67558;52.166;5.004;2023-06-01T03:06:20;102511.25;;;14.11;62.00
71384;BME280;67558;52.166;5.004;2023-06-01T03:08:47;102512.56;;;14.08;62.08
71384;BME280;67558;52.166;5.004;2023-06-01T03:11:12;102506.63;;;14.06;61.94
71384;BME280;67558;52.166;5.004;2023-06-01T03:13:37;102510.16;;;14.07;61.89
71384;BME280;67558;52.166;5.004;2023-06-01T03:16:03;102514.41;;;14.03;61.89
71384;BME280;67558;52.166;5.004;2023-06-01T03:18:29;102512.19;;;14.00;61.95
71384;BME280;67558;52.166;5.004;2023-06-01T03:20:54;102509.50;;;14.00;61.77
71384;BME280;67558;52.166;5.004;2023-06-01T03:23:20;102507.72;;;13.88;62.09
71384;BME280;67558;52.166;5.004;2023-06-01T03:25:45;102520.09;;;13.89;61.89
71384;BME280;67558;52.166;5.004;2023-06-01T03:28:10;102506.34;;;13.69;62.25
71384;BME280;67558;52.166;5.004;2023-06-01T03:30:36;102516.03;;;13.70;62.36
71384;BME280;67558;52.166;5.004;2023-06-01T03:33:02;102516.44;;;13.62;62.80
71384;BME280;67558;52.166;5.004;2023-06-01T03:35:27;102517.50;;;13.61;62.93
71384;BME280;67558;52.166;5.004;2023-06-01T03:37:52;102512.22;;;13.66;62.85
71384;BME280;67558;52.166;5.004;2023-06-01T03:40:18;102518.72;;;13.70;62.90
71384;BME280;67558;52.166;5.004;2023-06-01T03:42:45;102506.97;;;13.76;62.55
71384;BME280;67558;52.166;5.004;2023-06-01T03:45:11;102518.31;;;13.78;62.54
71384;BME280;67558;52.166;5.004;2023-06-01T03:47:37;102523.53;;;13.85;62.35
71384;BME280;67558;52.166;5.004;2023-06-01T03:50:03;102521.16;;;13.88;62.31
71384;BME280;67558;52.166;5.004;2023-06-01T03:52:31;102524.34;;;13.85;62.31
71384;BME280;67558;52.166;5.004;2023-06-01T03:54:58;102526.22;;;13.85;62.33
71384;BME280;67558;52.166;5.004;2023-06-01T03:57:24;102525.47;;;13.89;62.17
71384;BME280;67558;52.166;5.004;2023-06-01T03:59:50;102524.09;;;13.87;62.27
71384;BME280;67558;52.166;5.004;2023-06-01T04:02:16;102508.34;;;13.79;62.20
71384;BME280;67558;52.166;5.004;2023-06-01T04:04:42;102511.03;;;13.79;62.25
71384;BME280;67558;52.166;5.004;2023-06-01T04:07:11;102522.94;;;13.83;62.42
71384;BME280;67558;52.166;5.004;2023-06-01T04:09:40;102515.78;;;13.71;62.30
71384;BME280;67558;52.166;5.004;2023-06-01T04:12:05;102525.56;;;13.78;62.36
71384;BME280;67558;52.166;5.004;2023-06-01T04:14:31;102525.34;;;13.79;62.46
71384;BME280;67558;52.166;5.004;2023-06-01T04:16:56;102515.63;;;13.78;62.59
71384;BME280;67558;52.166;5.004;2023-06-01T04:19:21;102521.41;;;13.87;62.42
71384;BME280;67558;52.166;5.004;2023-06-01T04:21:47;102527.13;;;13.90;62.31
71384;BME280;67558;52.166;5.004;2023-06-01T04:24:12;102521.00;;;13.95;62.41
71384;BME280;67558;52.166;5.004;2023-06-01T04:26:37;102520.25;;;14.00;62.20
71384;BME280;67558;52.166;5.004;2023-06-01T04:29:03;102523.84;;;14.05;61.98
71384;BME280;67558;52.166;5.004;2023-06-01T04:31:28;102529.28;;;14.10;62.23
71384;BME280;67558;52.166;5.004;2023-06-01T04:33:54;102516.09;;;14.09;61.96
71384;BME280;67558;52.166;5.004;2023-06-01T04:36:24;102525.28;;;14.13;61.89
71384;BME280;67558;52.166;5.004;2023-06-01T04:38:49;102524.00;;;14.16;61.87
71384;BME280;67558;52.166;5.004;2023-06-01T04:41:22;102520.00;;;14.18;61.85
71384;BME280;67558;52.166;5.004;2023-06-01T04:43:49;102513.22;;;14.16;61.52
71384;BME280;67558;52.166;5.004;2023-06-01T04:46:19;102520.97;;;14.12;61.90
71384;BME280;67558;52.166;5.004;2023-06-01T04:48:45;102519.59;;;14.09;61.90
71384;BME280;67558;52.166;5.004;2023-06-01T04:51:12;102517.47;;;14.11;62.04
71384;BME280;67558;52.166;5.004;2023-06-01T04:53:42;102532.69;;;14.23;61.90
71384;BME280;67558;52.166;5.004;2023-06-01T04:56:08;102524.88;;;14.21;61.82
71384;BME280;67558;52.166;5.004;2023-06-01T04:58:33;102531.38;;;14.25;61.79
71384;BME280;67558;52.166;5.004;2023-06-01T05:00:58;102542.25;;;14.30;61.59
71384;BME280;67558;52.166;5.004;2023-06-01T05:03:25;102522.88;;;14.33;61.58
71384;BME280;67558;52.166;5.004;2023-06-01T05:05:50;102540.09;;;14.32;61.53
71384;BME280;67558;52.166;5.004;2023-06-01T05:08:16;102538.47;;;14.31;61.64
71384;BME280;67558;52.166;5.004;2023-06-01T05:10:41;102497.28;;;14.09;61.62
71384;BME280;67558;52.166;5.004;2023-06-01T05:13:06;102526.09;;;14.30;61.71
71384;BME280;67558;52.166;5.004;2023-06-01T05:15:32;102523.88;;;14.27;61.78
71384;BME280;67558;52.166;5.004;2023-06-01T05:17:57;102541.72;;;14.33;61.65
71384;BME280;67558;52.166;5.004;2023-06-01T05:20:22;102527.66;;;14.26;61.68
71384;BME280;67558;52.166;5.004;2023-06-01T05:22:48;102521.75;;;14.29;61.58
71384;BME280;67558;52.166;5.004;2023-06-01T05:25:13;102532.91;;;14.38;61.60
71384;BME280;67558;52.166;5.004;2023-06-01T05:27:39;102526.53;;;14.44;61.51
71384;BME280;67558;52.166;5.004;2023-06-01T05:30:05;102530.13;;;14.50;61.33
71384;BME280;67558;52.166;5.004;2023-06-01T05:32:30;102530.94;;;14.50;61.21
71384;BME280;67558;52.166;5.004;2023-06-01T05:34:56;102538.84;;;14.57;61.24
71384;BME280;67558;52.166;5.004;2023-06-01T05:37:21;102538.84;;;14.57;61.21
71384;BME280;67558;52.166;5.004;2023-06-01T05:39:46;102542.09;;;14.59;61.19
71384;BME280;67558;52.166;5.004;2023-06-01T05:42:12;102532.66;;;14.57;61.33
71384;BME280;67558;52.166;5.004;2023-06-01T05:44:37;102536.97;;;14.58;61.30
71384;BME280;67558;52.166;5.004;2023-06-01T05:47:03;102522.28;;;14.48;61.36
71384;BME280;67558;52.166;5.004;2023-06-01T05:49:28;102534.50;;;14.56;61.21
71384;BME280;67558;52.166;5.004;2023-06-01T05:51:57;102534.84;;;14.60;61.26
71384;BME280;67558;52.166;5.004;2023-06-01T05:54:23;102530.81;;;14.62;61.30
71384;BME280;67558;52.166;5.004;2023-06-01T05:56:48;102530.94;;;14.72;61.32
71384;BME280;67558;52.166;5.004;2023-06-01T05:59:13;102538.28;;;14.77;61.25
71384;BME280;67558;52.166;5.004;2023-06-01T06:01:39;102544.56;;;14.83;60.91
71384;BME280;67558;52.166;5.004;2023-06-01T06:04:05;102537.28;;;14.83;60.78
71384;BME280;67558;52.166;5.004;2023-06-01T06:06:31;102528.25;;;14.72;60.87
71384;BME280;67558;52.166;5.004;2023-06-01T06:08:56;102528.25;;;14.72;60.26
71384;BME280;67558;52.166;5.004;2023-06-01T06:11:21;102524.63;;;14.84;60.46
71384;BME280;67558;52.166;5.004;2023-06-01T06:13:50;102527.66;;;14.92;60.32
71384;BME280;67558;52.166;5.004;2023-06-01T06:16:15;102531.25;;;14.98;60.08
71384;BME280;67558;52.166;5.004;2023-06-01T06:18:41;102524.84;;;15.04;60.08
71384;BME280;67558;52.166;5.004;2023-06-01T06:21:06;102525.66;;;15.05;60.00
71384;BME280;67558;52.166;5.004;2023-06-01T06:23:31;102517.81;;;15.03;59.94
71384;BME280;67558;52.166;5.004;2023-06-01T06:25:58;102528.31;;;15.00;60.10
71384;BME280;67558;52.166;5.004;2023-06-01T06:28:23;102521.84;;;15.01;59.87
71384;BME280;67558;52.166;5.004;2023-06-01T06:30:48;102521.03;;;15.00;60.00
71384;BME280;67558;52.166;5.004;2023-06-01T06:33:14;102525.91;;;15.03;59.94
71384;BME280;67558;52.166;5.004;2023-06-01T06:35:39;102523.78;;;15.05;59.80
71384;BME280;67558;52.166;5.004;2023-06-01T06:38:06;102536.75;;;15.08;59.88
71384;BME280;67558;52.166;5.004;2023-06-01T06:40:31;102516.03;;;15.14;59.31
71384;BME280;67558;52.166;5.004;2023-06-01T06:42:57;102521.28;;;15.26;59.45
71384;BME280;67558;52.166;5.004;2023-06-01T06:45:22;102521.22;;;15.21;59.44
71384;BME280;67558;52.166;5.004;2023-06-01T06:47:48;102532.63;;;15.28;59.44
71384;BME280;67558;52.166;5.004;2023-06-01T06:50:14;102536.47;;;15.32;59.29
71384;BME280;67558;52.166;5.004;2023-06-01T06:52:39;102536.50;;;15.37;59.16
71384;BME280;67558;52.166;5.004;2023-06-01T06:55:05;102529.63;;;15.51;58.79
71384;BME280;67558;52.166;5.004;2023-06-01T06:57:30;102538.75;;;15.50;58.95
71384;BME280;67558;52.166;5.004;2023-06-01T06:59:56;102540.66;;;15.50;58.61
71384;BME280;67558;52.166;5.004;2023-06-01T07:02:21;102550.13;;;15.52;58.42
71384;BME280;67558;52.166;5.004;2023-06-01T07:04:47;102542.09;;;15.57;58.31
71384;BME280;67558;52.166;5.004;2023-06-01T07:07:12;102534.00;;;15.57;58.25
71384;BME280;67558;52.166;5.004;2023-06-01T07:09:37;102544.78;;;15.57;57.96
71384;BME280;67558;52.166;5.004;2023-06-01T07:12:03;102540.00;;;15.70;57.84
71384;BME280;67558;52.166;5.004;2023-06-01T07:14:28;102536.06;;;15.77;57.92
71384;BME280;67558;52.166;5.004;2023-06-01T07:16:53;102536.09;;;15.83;57.82
71384;BME280;67558;52.166;5.004;2023-06-01T07:19:19;102542.56;;;15.82;57.71
71384;BME280;67558;52.166;5.004;2023-06-01T07:21:44;102524.00;;;15.85;57.66
71384;BME280;67558;52.166;5.004;2023-06-01T07:24:10;102521.25;;;15.80;57.79
71384;BME280;67558;52.166;5.004;2023-06-01T07:26:35;102496.00;;;15.64;57.59
71384;BME280;67558;52.166;5.004;2023-06-01T07:29:01;102530.47;;;15.89;57.61
71384;BME280;67558;52.166;5.004;2023-06-01T07:31:26;102529.63;;;15.84;57.45
71384;BME280;67558;52.166;5.004;2023-06-01T07:33:53;102543.72;;;15.91;57.18
71384;BME280;67558;52.166;5.004;2023-06-01T07:36:21;102551.56;;;15.92;56.97
71384;BME280;67558;52.166;5.004;2023-06-01T07:38:49;102535.28;;;15.82;56.88
71384;BME280;67558;52.166;5.004;2023-06-01T07:41:15;102553.69;;;15.90;56.91
71384;BME280;67558;52.166;5.004;2023-06-01T07:43:41;102540.28;;;16.01;56.55
71384;BME280;67558;52.166;5.004;2023-06-01T07:46:06;102534.91;;;16.06;56.28
71384;BME280;67558;52.166;5.004;2023-06-01T07:48:31;102546.88;;;16.20;56.27
71384;BME280;67558;52.166;5.004;2023-06-01T07:51:03;102537.22;;;16.29;55.90
71384;BME280;67558;52.166;5.004;2023-06-01T07:53:28;102539.16;;;16.39;56.05
71384;BME280;67558;52.166;5.004;2023-06-01T07:55:54;102548.63;;;16.42;55.88
71384;BME280;67558;52.166;5.004;2023-06-01T07:58:20;102537.28;;;16.45;55.84
71384;BME280;67558;52.166;5.004;2023-06-01T08:00:45;102538.41;;;16.49;55.16
71384;BME280;67558;52.166;5.004;2023-06-01T08:03:11;102532.50;;;16.62;55.16
71384;BME280;67558;52.166;5.004;2023-06-01T08:05:36;102528.28;;;16.82;54.28
71384;BME280;67558;52.166;5.004;2023-06-01T08:08:02;102536.41;;;16.87;54.55
71384;BME280;67558;52.166;5.004;2023-06-01T08:10:28;102536.38;;;16.82;54.74
71384;BME280;67558;52.166;5.004;2023-06-01T08:12:53;102526.59;;;16.75;54.81
71384;BME280;67558;52.166;5.004;2023-06-01T08:15:22;102529.38;;;16.86;54.68
71384;BME280;67558;52.166;5.004;2023-06-01T08:17:49;102535.91;;;17.05;54.45
71384;BME280;67558;52.166;5.004;2023-06-01T08:20:16;102535.16;;;17.25;54.30
71384;BME280;67558;52.166;5.004;2023-06-01T08:22:46;102528.91;;;17.25;54.12
71384;BME280;67558;52.166;5.004;2023-06-01T08:25:12;102534.03;;;17.16;53.74
71384;BME280;67558;52.166;5.004;2023-06-01T08:27:38;102531.88;;;17.13;53.68
71384;BME280;67558;52.166;5.004;2023-06-01T08:30:03;102520.25;;;17.02;53.31
71384;BME280;67558;52.166;5.004;2023-06-01T08:32:29;102516.19;;;16.99;53.55
71384;BME280;67558;52.166;5.004;2023-06-01T08:34:54;102516.44;;;17.03;53.69
71384;BME280;67558;52.166;5.004;2023-06-01T08:37:20;102524.56;;;17.03;53.75
71384;BME280;67558;52.166;5.004;2023-06-01T08:39:45;102512.16;;;17.17;53.27
71384;BME280;67558;52.166;5.004;2023-06-01T08:44:46;102513.53;;;17.46;52.69
71384;BME280;67558;52.166;5.004;2023-06-01T08:47:13;102524.09;;;17.63;52.88
71384;BME280;67558;52.166;5.004;2023-06-01T08:49:41;102532.47;;;17.66;52.19
71384;BME280;67558;52.166;5.004;2023-06-01T08:52:11;102530.84;;;17.70;52.43
71384;BME280;67558;52.166;5.004;2023-06-01T08:54:38;102511.34;;;17.78;52.33
71384;BME280;67558;52.166;5.004;2023-06-01T08:57:05;102512.72;;;17.86;51.91
71384;BME280;67558;52.166;5.004;2023-06-01T08:59:33;102505.94;;;17.89;52.34
71384;BME280;67558;52.166;5.004;2023-06-01T09:01:59;102506.75;;;17.79;52.51
71384;BME280;67558;52.166;5.004;2023-06-01T09:04:26;102531.41;;;17.93;52.53
71384;BME280;67558;52.166;5.004;2023-06-01T09:06:51;102498.09;;;17.87;52.39
71384;BME280;67558;52.166;5.004;2023-06-01T09:09:17;102501.63;;;17.83;52.50
71384;BME280;67558;52.166;5.004;2023-06-01T09:11:43;102506.75;;;17.99;52.53
71384;BME280;67558;52.166;5.004;2023-06-01T09:14:22;102515.94;;;18.04;52.22
71384;BME280;67558;52.166;5.004;2023-06-01T09:16:48;102522.94;;;18.15;51.90
71384;BME280;67558;52.166;5.004;2023-06-01T09:19:14;102500.75;;;18.13;51.68
71384;BME280;67558;52.166;5.004;2023-06-01T09:21:39;102514.81;;;18.20;51.78
71384;BME280;67558;52.166;5.004;2023-06-01T09:24:21;102501.81;;;18.17;51.66
71384;BME280;67558;52.166;5.004;2023-06-01T09:26:50;102499.13;;;18.12;51.95
71384;BME280;67558;52.166;5.004;2023-06-01T09:29:16;102502.34;;;18.24;51.89
71384;BME280;67558;52.166;5.004;2023-06-01T09:31:44;102502.34;;;18.24;51.80
71384;BME280;67558;52.166;5.004;2023-06-01T09:34:12;102500.72;;;18.23;51.70
71384;BME280;67558;52.166;5.004;2023-06-01T09:36:40;102502.34;;;18.24;51.88
71384;BME280;67558;52.166;5.004;2023-06-01T09:39:09;102494.50;;;18.17;52.09
71384;BME280;67558;52.166;5.004;2023-06-01T09:42:10;102489.38;;;18.11;51.37
71384;BME280;67558;52.166;5.004;2023-06-01T09:44:37;102493.16;;;18.15;51.98
71384;BME280;67558;52.166;5.004;2023-06-01T09:47:05;102491.28;;;18.10;51.43
71384;BME280;67558;52.166;5.004;2023-06-01T09:49:36;102490.47;;;18.10;51.65
71384;BME280;67558;52.166;5.004;2023-06-01T09:57:05;102494.78;;;18.11;51.48
71384;BME280;67558;52.166;5.004;2023-06-01T09:59:41;102477.47;;;18.07;51.69
71384;BME280;67558;52.166;5.004;2023-06-01T10:02:17;102481.78;;;18.18;51.61
71384;BME280;67558;52.166;5.004;2023-06-01T10:04:54;102493.97;;;18.20;51.30
71384;BME280;67558;52.166;5.004;2023-06-01T10:07:23;102493.97;;;18.20;51.37
71384;BME280;67558;52.166;5.004;2023-06-01T10:09:54;102491.78;;;18.17;51.32
71384;BME280;67558;52.166;5.004;2023-06-01T10:12:20;102474.78;;;18.01;51.52
71384;BME280;67558;52.166;5.004;2023-06-01T10:14:46;102495.31;;;18.13;51.64
71384;BME280;67558;52.166;5.004;2023-06-01T10:17:13;102493.44;;;18.18;51.31
71384;BME280;67558;52.166;5.004;2023-06-01T10:19:40;102483.13;;;18.15;51.64
71384;BME280;67558;52.166;5.004;2023-06-01T10:22:06;102490.69;;;18.29;51.48
71384;BME280;67558;52.166;5.004;2023-06-01T10:24:32;102494.22;;;18.29;51.39
71384;BME280;67558;52.166;5.004;2023-06-01T10:29:32;102486.34;;;18.28;50.95
71384;BME280;67558;52.166;5.004;2023-06-01T10:31:58;102474.72;;;18.27;50.91
71384;BME280;67558;52.166;5.004;2023-06-01T10:34:56;102486.34;;;18.28;50.32
71384;BME280;67558;52.166;5.004;2023-06-01T10:37:21;102488.78;;;18.29;50.25
71384;BME280;67558;52.166;5.004;2023-06-01T10:39:47;102501.53;;;18.29;50.40
71384;BME280;67558;52.166;5.004;2023-06-01T10:47:03;102494.47;;;18.28;50.51
71384;BME280;67558;52.166;5.004;2023-06-01T10:52:28;102494.19;;;18.39;50.20
71384;BME280;67558;52.166;5.004;2023-06-01T10:54:56;102478.72;;;18.40;50.20
71384;BME280;67558;52.166;5.004;2023-06-01T10:57:44;102470.91;;;18.33;50.56
71384;BME280;67558;52.166;5.004;2023-06-01T11:03:02;102488.03;;;18.13;49.85
71384;BME280;67558;52.166;5.004;2023-06-01T11:08:05;102472.88;;;18.12;50.31
71384;BME280;67558;52.166;5.004;2023-06-01T11:13:38;102477.44;;;18.17;50.27
71384;BME280;67558;52.166;5.004;2023-06-01T11:18:49;102469.78;;;18.34;50.69
71384;BME280;67558;52.166;5.004;2023-06-01T11:21:23;102468.97;;;18.39;50.21
71384;BME280;67558;52.166;5.004;2023-06-01T11:23:50;102468.06;;;18.59;49.56
71384;BME280;67558;52.166;5.004;2023-06-01T11:26:22;102466.13;;;18.65;49.35
71384;BME280;67558;52.166;5.004;2023-06-01T11:28:50;102468.13;;;18.49;49.87
71384;BME280;67558;52.166;5.004;2023-06-01T11:31:18;102472.25;;;18.36;49.76
71384;BME280;67558;52.166;5.004;2023-06-01T11:33:52;102474.44;;;18.24;50.11
71384;BME280;67558;52.166;5.004;2023-06-01T11:36:19;102465.75;;;18.37;49.96
71384;BME280;67558;52.166;5.004;2023-06-01T11:38:45;102480.94;;;18.33;50.12
71384;BME280;67558;52.166;5.004;2023-06-01T11:41:11;102466.00;;;18.30;50.26
71384;BME280;67558;52.166;5.004;2023-06-01T11:43:36;102473.03;;;18.36;49.99
71384;BME280;67558;52.166;5.004;2023-06-01T11:46:06;102470.59;;;18.40;50.00
71384;BME280;67558;52.166;5.004;2023-06-01T11:48:33;102465.97;;;18.46;49.97
71384;BME280;67558;52.166;5.004;2023-06-01T11:51:02;102456.69;;;18.57;50.29
71384;BME280;67558;52.166;5.004;2023-06-01T11:53:29;102471.06;;;18.57;49.59
71384;BME280;67558;52.166;5.004;2023-06-01T11:55:57;102466.69;;;18.61;49.95
71384;BME280;67558;52.166;5.004;2023-06-01T11:58:27;102472.38;;;18.60;49.72
71384;BME280;67558;52.166;5.004;2023-06-01T12:00:53;102468.59;;;18.61;49.96
71384;BME280;67558;52.166;5.004;2023-06-01T12:03:19;102434.00;;;18.42;50.02
71384;BME280;67558;52.166;5.004;2023-06-01T12:05:45;102461.81;;;18.63;50.39
71384;BME280;67558;52.166;5.004;2023-06-01T12:08:29;102469.38;;;18.67;50.71
71384;BME280;67558;52.166;5.004;2023-06-01T12:10:55;102461.25;;;18.67;50.51
71384;BME280;67558;52.166;5.004;2023-06-01T12:13:21;102465.06;;;18.66;50.76
71384;BME280;67558;52.166;5.004;2023-06-01T12:15:51;102470.22;;;18.62;51.09
71384;BME280;67558;52.166;5.004;2023-06-01T12:18:28;102457.84;;;18.46;51.31
71384;BME280;67558;52.166;5.004;2023-06-01T12:20:55;102467.31;;;18.43;51.32
71384;BME280;67558;52.166;5.004;2023-06-01T12:23:20;102481.47;;;18.35;51.58
71384;BME280;67558;52.166;5.004;2023-06-01T12:28:16;102472.59;;;18.14;52.49
71384;BME280;67558;52.166;5.004;2023-06-01T12:30:43;102467.44;;;18.12;52.81
71384;BME280;67558;52.166;5.004;2023-06-01T12:33:08;102475.84;;;18.16;52.81
71384;BME280;67558;52.166;5.004;2023-06-01T12:35:50;102469.09;;;18.13;52.58
71384;BME280;67558;52.166;5.004;2023-06-01T12:38:15;102476.91;;;18.20;52.58
71384;BME280;67558;52.166;5.004;2023-06-01T12:40:41;102474.19;;;18.20;52.72
71384;BME280;67558;52.166;5.004;2023-06-01T12:43:17;102472.88;;;18.12;52.89
71384;BME280;67558;52.166;5.004;2023-06-01T12:45:43;102475.56;;;18.12;52.86
71384;BME280;67558;52.166;5.004;2023-06-01T12:48:08;102474.50;;;18.13;53.38
71384;BME280;67558;52.166;5.004;2023-06-01T12:50:42;102475.56;;;18.12;53.40
71384;BME280;67558;52.166;5.004;2023-06-01T12:53:08;102473.66;;;18.13;53.40
71384;BME280;67558;52.166;5.004;2023-06-01T12:55:33;102432.59;;;17.85;53.36
71384;BME280;67558;52.166;5.004;2023-06-01T12:57:58;102473.13;;;18.11;53.43
71384;BME280;67558;52.166;5.004;2023-06-01T13:00:24;102470.41;;;18.21;53.32
71384;BME280;67558;52.166;5.004;2023-06-01T13:02:49;102474.75;;;18.22;53.63
71384;BME280;67558;52.166;5.004;2023-06-01T13:05:16;102472.56;;;18.19;53.35
71384;BME280;67558;52.166;5.004;2023-06-01T13:07:42;102472.28;;;18.15;53.65
71384;BME280;67558;52.166;5.004;2023-06-01T13:10:10;102461.28;;;17.96;53.88
71384;BME280;67558;52.166;5.004;2023-06-01T13:12:35;102472.38;;;17.95;54.11
71384;BME280;67558;52.166;5.004;2023-06-01T13:15:01;102464.53;;;17.83;54.08
71384;BME280;67558;52.166;5.004;2023-06-01T13:17:29;102474.53;;;17.77;54.42
71384;BME280;67558;52.166;5.004;2023-06-01T13:19:54;102469.69;;;17.69;54.54
71384;BME280;67558;52.166;5.004;2023-06-01T13:22:20;102457.78;;;17.65;54.65
71384;BME280;67558;52.166;5.004;2023-06-01T13:24:47;102456.16;;;17.64;55.21
71384;BME280;67558;52.166;5.004;2023-06-01T13:27:12;102464.00;;;17.71;55.00
71384;BME280;67558;52.166;5.004;2023-06-01T13:29:37;102449.66;;;17.75;54.63